createdAt,value
2023-04-16T00:01:20.671Z,5.40
2023-04-16T00:03:47.357Z,4.55
2023-04-16T00:06:57.554Z,5.10
2023-04-16T00:09:23.882Z,5.85
2023-04-16T00:11:50.224Z,5.13
2023-04-16T00:14:16.523Z,5.70
2023-04-16T00:16:42.904Z,5.22
2023-04-16T00:19:09.770Z,6.03
2023-04-16T00:21:36.249Z,5.43
2023-04-16T00:24:02.624Z,5.18
2023-04-16T00:26:29.010Z,5.57
2023-04-16T00:28:55.424Z,4.97
2023-04-16T00:31:32.938Z,5.80
2023-04-16T00:33:59.886Z,5.38
2023-04-16T00:36:27.737Z,5.75
2023-04-16T00:38:55.409Z,5.65
2023-04-16T00:41:26.761Z,6.28
2023-04-16T00:43:53.317Z,5.32
2023-04-16T00:46:21.897Z,5.28
2023-04-16T00:48:49.347Z,5.53
2023-04-16T00:51:16.585Z,5.20
2023-04-16T00:53:43.436Z,5.15
2023-04-16T00:56:10.414Z,5.30
2023-04-16T00:58:36.803Z,5.50
2023-04-16T01:01:03.378Z,5.18
2023-04-16T01:03:38.002Z,5.68
2023-04-16T01:06:04.816Z,5.67
2023-04-16T01:08:31.218Z,5.35
2023-04-16T01:10:57.552Z,5.38
2023-04-16T01:13:23.949Z,5.30
2023-04-16T01:15:50.452Z,5.75
2023-04-16T01:18:21.072Z,5.70
2023-04-16T01:20:48.620Z,5.80
2023-04-16T01:23:15.392Z,5.45
2023-04-16T01:25:41.806Z,5.88
2023-04-16T01:28:08.129Z,5.90
2023-04-16T01:30:34.421Z,5.38
2023-04-16T01:33:00.772Z,6.28
2023-04-16T01:35:27.284Z,5.70
2023-04-16T01:37:53.718Z,5.72
2023-04-16T01:40:20.203Z,6.35
2023-04-16T01:42:46.517Z,6.07
2023-04-16T01:45:12.897Z,6.20
2023-04-16T01:47:39.871Z,5.72
2023-04-16T01:50:06.950Z,6.10
2023-04-16T01:52:33.274Z,6.90
2023-04-16T01:54:59.569Z,6.25
2023-04-16T01:57:25.875Z,6.05
2023-04-16T01:59:52.182Z,6.47
2023-04-16T02:02:18.728Z,7.40
2023-04-16T02:04:46.293Z,6.32
2023-04-16T02:07:12.679Z,7.63
2023-04-16T02:09:40.583Z,7.18
2023-04-16T02:12:07.787Z,7.43
2023-04-16T02:14:34.161Z,7.22
2023-04-16T02:17:00.776Z,6.53
2023-04-16T02:19:27.141Z,6.85
2023-04-16T02:21:54.089Z,7.82
2023-04-16T02:24:20.997Z,6.82
2023-04-16T02:26:48.112Z,6.20
2023-04-16T02:29:14.778Z,7.28
2023-04-16T02:31:41.178Z,6.80
2023-04-16T02:34:07.760Z,6.78
2023-04-16T02:36:34.165Z,6.40
2023-04-16T02:39:00.524Z,6.72
2023-04-16T02:41:26.841Z,6.65
2023-04-16T02:43:53.215Z,6.43
2023-04-16T02:46:19.652Z,6.78
2023-04-16T02:48:46.037Z,5.75
2023-04-16T02:51:12.528Z,7.25
2023-04-16T02:53:38.879Z,6.57
2023-04-16T02:56:05.859Z,6.80
2023-04-16T02:58:32.301Z,6.13
2023-04-16T03:00:58.657Z,6.97
2023-04-16T03:03:25.138Z,6.97
2023-04-16T03:05:52.017Z,6.60
2023-04-16T03:08:18.346Z,6.60
2023-04-16T03:10:44.696Z,7.40
2023-04-16T03:13:11.088Z,6.50
2023-04-16T03:15:38.595Z,6.38
2023-04-16T03:18:05.141Z,5.88
2023-04-16T03:20:31.728Z,6.05
2023-04-16T03:22:58.151Z,6.25
2023-04-16T03:25:24.488Z,6.68
2023-04-16T03:27:50.796Z,5.90
2023-04-16T03:30:17.117Z,6.45
2023-04-16T03:32:43.571Z,6.20
2023-04-16T03:35:10.394Z,5.82
2023-04-16T03:37:36.758Z,5.65
2023-04-16T03:40:05.651Z,5.88
2023-04-16T03:42:31.978Z,6.22
2023-04-16T03:44:59.318Z,6.15
2023-04-16T03:47:25.671Z,6.07
2023-04-16T03:49:52.206Z,6.28
2023-04-16T03:52:18.493Z,6.60
2023-04-16T03:54:44.861Z,5.90
2023-04-16T03:57:11.185Z,6.15
2023-04-16T03:59:37.545Z,5.25
2023-04-16T04:02:04.039Z,6.32
2023-04-16T04:04:30.741Z,7.20
2023-04-16T04:06:57.233Z,6.30
2023-04-16T04:09:23.551Z,6.50
2023-04-16T04:11:50.456Z,5.90
2023-04-16T04:14:16.838Z,6.18
2023-04-16T04:16:43.265Z,6.43
2023-04-16T04:19:09.792Z,6.78
2023-04-16T04:21:36.222Z,6.30
2023-04-16T04:24:02.795Z,6.60
2023-04-16T04:26:29.224Z,6.45
2023-04-16T04:28:55.655Z,7.20
2023-04-16T04:31:22.081Z,6.93
2023-04-16T04:33:48.472Z,6.30
2023-04-16T04:36:14.805Z,7.28
2023-04-16T04:38:41.395Z,6.95
2023-04-16T04:41:07.694Z,6.63
2023-04-16T04:43:34.128Z,6.93
2023-04-16T04:46:00.927Z,7.28
2023-04-16T04:48:27.607Z,6.90
2023-04-16T04:50:53.952Z,6.60
2023-04-16T04:53:20.635Z,6.40
2023-04-16T04:55:49.216Z,6.53
2023-04-16T04:58:17.272Z,6.43
2023-04-16T05:00:43.739Z,6.47
2023-04-16T05:03:11.386Z,6.43
2023-04-16T05:05:39.301Z,6.13
2023-04-16T05:08:05.736Z,5.90
2023-04-16T05:10:32.094Z,6.20
2023-04-16T05:12:58.495Z,6.53
2023-04-16T05:15:24.850Z,6.22
2023-04-16T05:17:51.180Z,6.15
2023-04-16T05:20:17.606Z,7.45
2023-04-16T05:22:43.956Z,6.53
2023-04-16T05:25:10.402Z,6.50
2023-04-16T05:27:36.973Z,5.72
2023-04-16T05:30:03.889Z,6.90
2023-04-16T05:32:30.252Z,6.22
2023-04-16T05:34:56.569Z,6.68
2023-04-16T05:37:22.958Z,6.47
2023-04-16T05:39:49.287Z,6.70
2023-04-16T05:42:16.225Z,6.90
2023-04-16T05:44:42.597Z,6.93
2023-04-16T05:47:09.408Z,6.65
2023-04-16T05:49:39.191Z,6.63
2023-04-16T05:52:06.115Z,7.03
2023-04-16T05:54:32.438Z,7.18
2023-04-16T05:57:00.950Z,7.43
2023-04-16T05:59:27.704Z,7.20
2023-04-16T06:01:54.079Z,7.90
2023-04-16T06:04:20.610Z,7.72
2023-04-16T06:06:47.012Z,7.85
2023-04-16T06:09:13.327Z,7.10
2023-04-16T06:11:39.944Z,7.47
2023-04-16T06:14:06.385Z,7.65
2023-04-16T06:16:32.809Z,8.07
2023-04-16T06:18:59.187Z,7.85
2023-04-16T06:21:26.560Z,8.30
2023-04-16T06:23:54.103Z,7.45
2023-04-16T06:26:20.650Z,7.88
2023-04-16T06:28:46.978Z,8.20
2023-04-16T06:31:13.811Z,8.23
2023-04-16T06:33:40.542Z,7.80
2023-04-16T06:36:07.063Z,8.02
2023-04-16T06:38:33.368Z,8.05
2023-04-16T06:40:59.805Z,8.45
2023-04-16T06:43:26.290Z,7.97
2023-04-16T06:45:52.747Z,7.85
2023-04-16T06:48:19.086Z,9.13
2023-04-16T06:50:45.674Z,7.60
2023-04-16T06:53:12.047Z,7.72
2023-04-16T06:55:38.428Z,8.20
2023-04-16T06:58:04.731Z,8.32
2023-04-16T07:00:31.049Z,7.97
2023-04-16T07:02:58.753Z,8.70
2023-04-16T07:08:16.438Z,8.68
2023-04-16T07:10:42.905Z,7.97
2023-04-16T07:13:09.319Z,8.68
2023-04-16T07:15:35.669Z,8.05
2023-04-16T07:18:02.217Z,8.45
2023-04-16T07:20:28.667Z,7.80
2023-04-16T07:22:55.134Z,8.45
2023-04-16T07:25:21.636Z,8.18
2023-04-16T07:27:48.005Z,8.40
2023-04-16T07:30:14.558Z,8.38
2023-04-16T07:32:40.971Z,8.57
2023-04-16T07:35:07.682Z,8.20
2023-04-16T07:37:34.029Z,7.70
2023-04-16T07:40:00.778Z,8.23
2023-04-16T07:42:27.961Z,7.05
2023-04-16T07:44:54.961Z,7.70
2023-04-16T07:47:22.956Z,6.55
2023-04-16T07:49:50.556Z,6.40
2023-04-16T07:52:16.866Z,5.45
2023-04-16T07:54:43.249Z,5.82
2023-04-16T07:57:09.546Z,6.05
2023-04-16T07:59:35.960Z,5.75
2023-04-16T08:02:02.405Z,5.82
2023-04-16T08:04:28.980Z,5.68
2023-04-16T08:06:55.741Z,5.53
2023-04-16T08:09:23.733Z,5.97
2023-04-16T08:11:50.236Z,5.47
2023-04-16T08:14:17.081Z,5.80
2023-04-16T08:16:43.377Z,5.90
2023-04-16T08:19:09.973Z,5.90
2023-04-16T08:21:36.654Z,6.07
2023-04-16T08:24:03.063Z,6.45
2023-04-16T08:26:29.435Z,6.70
2023-04-16T08:28:55.734Z,6.43
2023-04-16T08:31:22.383Z,6.50
2023-04-16T08:33:48.889Z,6.85
2023-04-16T08:36:15.253Z,6.75
2023-04-16T08:38:41.602Z,6.75
2023-04-16T08:41:12.231Z,7.07
2023-04-16T08:43:44.312Z,7.15
2023-04-16T08:46:15.900Z,7.57
2023-04-16T08:48:44.003Z,7.47
2023-04-16T08:51:11.869Z,7.82
2023-04-16T08:53:57.978Z,8.25
2023-04-16T08:56:24.689Z,8.20
2023-04-16T08:58:54.700Z,8.38
2023-04-16T09:01:21.406Z,8.32
2023-04-16T09:03:49.072Z,8.50
2023-04-16T09:06:16.600Z,7.63
2023-04-16T09:08:48.832Z,8.10
2023-04-16T09:11:17.878Z,8.07
2023-04-16T09:13:46.197Z,7.25
2023-04-16T09:16:13.518Z,8.85
2023-04-16T09:18:40.233Z,8.65
2023-04-16T09:21:09.810Z,9.10
2023-04-16T09:23:38.511Z,9.18
2023-04-16T09:26:05.025Z,7.82
2023-04-16T09:28:47.973Z,8.13
2023-04-16T09:31:18.812Z,8.82
2023-04-16T09:34:02.387Z,8.82
2023-04-16T09:36:29.552Z,9.70
2023-04-16T09:38:57.716Z,8.90
2023-04-16T09:41:27.192Z,8.40
2023-04-16T09:44:01.921Z,9.57
2023-04-16T09:46:36.018Z,10.10
2023-04-16T09:49:16.037Z,9.90
2023-04-16T09:51:43.814Z,9.60
2023-04-16T09:54:10.431Z,9.73
2023-04-16T09:56:42.047Z,10.45
2023-04-16T09:59:16.468Z,10.18
2023-04-16T10:01:42.932Z,10.20
2023-04-16T10:04:09.399Z,10.30
2023-04-16T10:06:35.790Z,10.65
2023-04-16T10:09:07.513Z,10.65
2023-04-16T10:11:34.231Z,10.07
2023-04-16T10:14:00.993Z,9.50
2023-04-16T10:16:27.620Z,10.23
2023-04-16T10:18:56.402Z,9.65
2023-04-16T10:21:22.905Z,10.02
2023-04-16T10:23:51.989Z,10.40
2023-04-16T10:26:18.373Z,10.55
2023-04-16T10:28:45.469Z,9.80
2023-04-16T10:31:12.633Z,9.07
2023-04-16T10:33:42.678Z,10.02
2023-04-16T10:36:16.073Z,9.65
2023-04-16T10:38:47.353Z,8.93
2023-04-16T10:41:13.912Z,8.48
2023-04-16T10:43:42.709Z,9.45
2023-04-16T10:46:36.621Z,9.93
2023-04-16T10:49:19.238Z,9.50
2023-04-16T10:51:55.858Z,9.23
2023-04-16T10:54:26.478Z,9.43
2023-04-16T10:56:53.950Z,9.35
2023-04-16T10:59:22.131Z,9.85
2023-04-16T11:01:54.269Z,10.07
2023-04-16T11:04:21.132Z,9.63
2023-04-16T11:07:06.133Z,10.40
2023-04-16T11:09:59.651Z,10.27
2023-04-16T11:12:29.273Z,9.63
2023-04-16T11:15:07.472Z,10.57
2023-04-16T11:17:37.463Z,10.73
2023-04-16T11:20:18.976Z,10.18
2023-04-16T11:22:47.400Z,10.50
2023-04-16T11:25:19.752Z,10.35
2023-04-16T11:27:46.034Z,10.68
2023-04-16T11:30:13.494Z,11.82
2023-04-16T11:32:40.726Z,11.30
2023-04-16T11:35:18.662Z,10.57
2023-04-16T11:37:45.922Z,11.65
2023-04-16T11:40:12.868Z,12.85
2023-04-16T11:42:41.087Z,10.70
2023-04-16T11:45:09.525Z,11.95
2023-04-16T11:47:46.175Z,11.48
2023-04-16T11:50:20.550Z,12.57
2023-04-16T11:52:48.335Z,12.90
2023-04-16T11:55:15.499Z,12.77
2023-04-16T11:57:42.110Z,11.80
2023-04-16T12:00:12.872Z,12.15
2023-04-16T12:02:40.900Z,11.85
2023-04-16T12:05:37.205Z,12.32
2023-04-16T12:08:11.494Z,12.80
2023-04-16T12:10:53.540Z,12.20
2023-04-16T12:13:19.933Z,12.00
2023-04-16T12:15:50.718Z,12.07
2023-04-16T12:18:19.196Z,11.88
2023-04-16T12:20:47.063Z,11.25
2023-04-16T12:23:33.536Z,11.55
2023-04-16T12:26:10.151Z,11.65
2023-04-16T12:28:38.331Z,12.75
2023-04-16T12:31:05.832Z,12.07
2023-04-16T12:33:32.415Z,11.73
2023-04-16T12:35:58.797Z,10.90
2023-04-16T12:38:26.209Z,11.65
2023-04-16T12:40:56.468Z,11.50
2023-04-16T12:43:23.442Z,11.68
2023-04-16T12:45:49.839Z,12.63
2023-04-16T12:48:16.204Z,12.88
2023-04-16T12:50:44.138Z,11.60
2023-04-16T12:53:10.587Z,11.60
2023-04-16T12:55:37.086Z,11.63
2023-04-16T12:58:03.433Z,12.20
2023-04-16T13:00:29.766Z,13.18
2023-04-16T13:02:56.138Z,12.15
2023-04-16T13:05:22.601Z,12.50
2023-04-16T13:07:49.068Z,12.63
2023-04-16T13:10:16.516Z,12.43
2023-04-16T13:12:42.873Z,13.10
2023-04-16T13:15:10.436Z,12.43
2023-04-16T13:17:36.834Z,11.63
2023-04-16T13:20:03.337Z,12.68
2023-04-16T13:22:29.828Z,11.18
2023-04-16T13:24:56.165Z,11.82
2023-04-16T13:27:22.477Z,11.60
2023-04-16T13:29:48.830Z,10.75
2023-04-16T13:32:15.396Z,11.00
2023-04-16T13:34:42.260Z,10.15
2023-04-16T13:37:08.650Z,10.25
2023-04-16T13:39:34.968Z,10.48
2023-04-16T13:42:02.578Z,9.95
2023-04-16T13:44:28.939Z,10.13
2023-04-16T13:46:56.037Z,10.07
2023-04-16T13:49:23.376Z,9.60
2023-04-16T13:51:49.819Z,9.45
2023-04-16T13:54:16.105Z,10.38
2023-04-16T13:56:42.554Z,9.65
2023-04-16T13:59:09.293Z,9.63
2023-04-16T14:01:35.744Z,10.13
2023-04-16T14:04:06.285Z,9.25
2023-04-16T14:06:33.988Z,9.68
2023-04-16T14:09:00.398Z,9.32
2023-04-16T14:11:26.751Z,9.80
2023-04-16T14:13:53.034Z,10.18
2023-04-16T14:16:19.463Z,9.75
2023-04-16T14:18:47.252Z,9.27
2023-04-16T14:21:13.610Z,9.55
2023-04-16T14:23:40.000Z,8.88
2023-04-16T14:26:06.370Z,10.27
2023-04-16T14:28:32.935Z,9.00
2023-04-16T14:30:59.288Z,9.05
2023-04-16T14:33:25.902Z,9.30
2023-04-16T14:35:52.364Z,8.43
2023-04-16T14:38:18.753Z,8.80
2023-04-16T14:40:45.137Z,8.65
2023-04-16T14:43:11.572Z,8.82
2023-04-16T14:45:38.246Z,7.97
2023-04-16T14:48:05.345Z,7.35
2023-04-16T14:50:31.773Z,8.13
2023-04-16T14:52:58.155Z,7.63
2023-04-16T14:55:24.525Z,7.40
2023-04-16T14:57:51.213Z,6.40
2023-04-16T15:00:18.675Z,7.40
2023-04-16T15:02:46.202Z,7.07
2023-04-16T15:05:12.811Z,6.18
2023-04-16T15:07:39.346Z,6.22
2023-04-16T15:10:07.738Z,5.82
2023-04-16T15:12:34.153Z,6.22
2023-04-16T15:15:00.640Z,5.75
2023-04-16T15:17:27.057Z,5.80
2023-04-16T15:19:53.545Z,6.05
2023-04-16T15:22:19.939Z,5.75
2023-04-16T15:24:46.303Z,5.65
2023-04-16T15:27:14.502Z,7.00
2023-04-16T15:29:40.902Z,9.48
2023-04-16T15:32:07.215Z,10.20
2023-04-16T15:34:34.530Z,10.32
2023-04-16T15:37:00.876Z,10.18
2023-04-16T15:39:27.280Z,11.05
2023-04-16T15:42:00.753Z,11.27
2023-04-16T15:44:28.074Z,9.93
2023-04-16T15:46:54.510Z,11.18
2023-04-16T15:49:20.858Z,10.85
2023-04-16T15:51:47.280Z,11.38
2023-04-16T15:54:13.676Z,11.15
2023-04-16T15:56:40.111Z,9.90
2023-04-16T15:59:06.538Z,10.65
2023-04-16T16:01:32.927Z,9.55
2023-04-16T16:03:59.438Z,9.68
2023-04-16T16:06:27.038Z,9.00
2023-04-16T16:08:54.463Z,10.05
2023-04-16T16:11:21.805Z,10.38
2023-04-16T16:13:48.304Z,19.65
2023-04-16T16:16:15.418Z,15.75
2023-04-16T16:18:42.193Z,12.07
2023-04-16T16:21:08.615Z,9.85
2023-04-16T16:23:35.039Z,9.82
2023-04-16T16:26:01.788Z,10.20
2023-04-16T16:28:28.156Z,9.57
2023-04-16T16:30:55.465Z,10.73
2023-04-16T16:33:22.302Z,10.60
2023-04-16T16:35:48.632Z,10.48
2023-04-16T16:38:15.340Z,11.23
2023-04-16T16:40:41.687Z,10.35
2023-04-16T16:43:08.053Z,9.82
2023-04-16T16:45:34.498Z,11.43
2023-04-16T16:48:00.892Z,10.93
2023-04-16T16:50:27.264Z,9.88
2023-04-16T16:52:53.602Z,10.95
2023-04-16T16:55:20.806Z,10.40
2023-04-16T16:57:47.142Z,10.80
2023-04-16T17:00:15.092Z,10.48
2023-04-16T17:02:41.633Z,10.45
2023-04-16T17:05:08.492Z,10.38
2023-04-16T17:07:34.886Z,10.15
2023-04-16T17:10:03.762Z,8.52
2023-04-16T17:12:32.064Z,10.65
2023-04-16T17:14:58.522Z,10.88
2023-04-16T17:17:27.045Z,11.07
2023-04-16T17:19:53.758Z,12.73
2023-04-16T17:22:20.332Z,12.88
2023-04-16T17:24:47.131Z,13.23
2023-04-16T17:27:13.449Z,11.82
2023-04-16T17:29:39.803Z,11.13
2023-04-16T17:32:06.208Z,10.98
2023-04-16T17:34:32.600Z,8.57
2023-04-16T17:36:58.912Z,9.82
2023-04-16T17:39:25.375Z,8.75
2023-04-16T17:41:54.639Z,8.68
2023-04-16T17:44:22.826Z,9.00
2023-04-16T17:46:49.126Z,8.80
2023-04-16T17:49:15.565Z,7.63
2023-04-16T17:51:44.312Z,8.05
2023-04-16T17:54:10.902Z,7.80
2023-04-16T17:56:37.650Z,8.45
2023-04-16T17:59:04.554Z,7.95
2023-04-16T18:01:31.110Z,8.40
2023-04-16T18:03:57.688Z,7.93
2023-04-16T18:06:24.069Z,8.52
2023-04-16T18:08:50.509Z,7.90
2023-04-16T18:11:17.075Z,7.43
2023-04-16T18:13:43.551Z,7.43
2023-04-16T18:16:16.564Z,7.93
2023-04-16T18:18:43.702Z,8.05
2023-04-16T18:21:10.401Z,7.90
2023-04-16T18:23:36.773Z,7.50
2023-04-16T18:26:03.615Z,8.30
2023-04-16T18:28:29.972Z,8.32
2023-04-16T18:30:58.879Z,8.45
2023-04-16T18:33:42.827Z,8.98
2023-04-16T18:36:12.343Z,9.15
2023-04-16T18:38:49.502Z,8.35
2023-04-16T18:41:24.035Z,8.73
2023-04-16T18:43:50.526Z,8.68
2023-04-16T18:46:17.087Z,8.52
2023-04-16T18:48:47.215Z,8.52
2023-04-16T18:51:15.902Z,8.13
2023-04-16T18:53:44.136Z,8.90
2023-04-16T18:56:11.537Z,8.52
2023-04-16T18:58:38.053Z,8.45
2023-04-16T19:01:05.233Z,8.95
2023-04-16T19:03:32.077Z,8.23
2023-04-16T19:05:58.681Z,7.40
2023-04-16T19:08:25.229Z,7.90
2023-04-16T19:10:51.718Z,7.85
2023-04-16T19:13:18.246Z,7.82
2023-04-16T19:15:44.652Z,7.00
2023-04-16T19:18:10.995Z,7.90
2023-04-16T19:20:37.525Z,7.47
2023-04-16T19:23:05.605Z,8.52
2023-04-16T19:25:32.621Z,7.72
2023-04-16T19:27:59.027Z,9.20
2023-04-16T19:30:26.299Z,7.85
2023-04-16T19:32:55.176Z,7.82
2023-04-16T19:35:22.150Z,7.95
2023-04-16T19:37:48.680Z,7.75
2023-04-16T19:40:15.274Z,8.13
2023-04-16T19:42:41.725Z,8.55
2023-04-16T19:45:08.325Z,8.43
2023-04-16T19:47:34.747Z,8.43
2023-04-16T19:50:01.084Z,8.10
2023-04-16T19:52:27.467Z,10.25
2023-04-16T19:54:53.807Z,9.70
2023-04-16T19:57:20.282Z,8.48
2023-04-16T19:59:46.643Z,8.88
2023-04-16T20:02:13.048Z,9.02
2023-04-16T20:04:39.434Z,9.65
2023-04-16T20:07:05.797Z,9.45
2023-04-16T20:09:32.171Z,9.38
2023-04-16T20:11:58.709Z,9.25
2023-04-16T20:14:25.102Z,10.00
2023-04-16T20:16:52.085Z,9.88
2023-04-16T20:19:19.409Z,8.82
2023-04-16T20:21:45.994Z,9.15
2023-04-16T20:24:12.450Z,8.77
2023-04-16T20:26:38.868Z,9.88
2023-04-16T20:29:05.313Z,8.82
2023-04-16T20:31:31.696Z,9.07
2023-04-16T20:33:58.083Z,11.27
2023-04-16T20:36:24.434Z,10.70
2023-04-16T20:38:53.745Z,9.68
2023-04-16T20:41:21.233Z,10.55
2023-04-16T20:43:50.108Z,10.40
2023-04-16T20:46:17.076Z,10.60
2023-04-16T20:48:43.613Z,10.23
2023-04-16T20:51:10.095Z,10.80
2023-04-16T20:53:39.565Z,10.70
2023-04-16T20:56:06.833Z,11.23
2023-04-16T20:58:33.270Z,10.52
2023-04-16T21:00:59.615Z,11.15
2023-04-16T21:03:26.469Z,10.95
2023-04-16T21:05:55.065Z,10.60
2023-04-16T21:08:22.272Z,11.00
2023-04-16T21:10:48.911Z,10.57
2023-04-16T21:13:15.571Z,11.45
2023-04-16T21:15:43.778Z,12.02
2023-04-16T21:18:10.978Z,11.05
2023-04-16T21:20:37.735Z,11.40
2023-04-16T21:23:05.492Z,11.23
2023-04-16T21:25:32.027Z,11.75
2023-04-16T21:27:58.392Z,12.40
2023-04-16T21:30:24.693Z,11.60
2023-04-16T21:32:51.139Z,12.15
2023-04-16T21:35:17.550Z,10.35
2023-04-16T21:37:43.867Z,12.48
2023-04-16T21:40:10.522Z,10.75
2023-04-16T21:42:41.954Z,12.45
2023-04-16T21:45:10.288Z,11.50
2023-04-16T21:47:37.493Z,12.00
2023-04-16T21:50:04.095Z,12.25
2023-04-16T21:52:30.485Z,11.70
2023-04-16T21:54:56.815Z,11.90
2023-04-16T21:57:23.255Z,11.48
2023-04-16T21:59:49.609Z,11.70
2023-04-16T22:02:16.251Z,11.13
2023-04-16T22:04:43.498Z,11.95
2023-04-16T22:07:09.900Z,11.00
2023-04-16T22:09:36.311Z,10.80
2023-04-16T22:12:02.734Z,11.05
2023-04-16T22:14:30.044Z,11.75
2023-04-16T22:16:56.416Z,10.60
2023-04-16T22:19:22.934Z,10.80
2023-04-16T22:21:49.230Z,10.25
2023-04-16T22:24:15.667Z,9.95
2023-04-16T22:26:42.079Z,11.02
2023-04-16T22:29:08.562Z,9.60
2023-04-16T22:31:35.020Z,10.90
2023-04-16T22:34:03.345Z,10.25
2023-04-16T22:36:30.810Z,10.02
2023-04-16T22:38:57.142Z,9.98
2023-04-16T22:41:23.451Z,10.95
2023-04-16T22:43:52.301Z,10.20
2023-04-16T22:46:22.235Z,10.13
2023-04-16T22:48:48.651Z,10.48
2023-04-16T22:51:14.971Z,10.45
2023-04-16T22:53:41.340Z,9.35
2023-04-16T22:56:07.742Z,10.73
2023-04-16T22:58:34.173Z,10.57
2023-04-16T23:01:01.453Z,10.50
2023-04-16T23:03:27.955Z,9.80
2023-04-16T23:05:54.343Z,12.55
2023-04-16T23:08:20.699Z,11.63
2023-04-16T23:10:46.975Z,12.15
2023-04-16T23:13:13.466Z,13.75
2023-04-16T23:15:39.848Z,10.38
2023-04-16T23:18:06.256Z,12.50
2023-04-16T23:20:32.668Z,14.00
2023-04-16T23:22:58.976Z,13.05
2023-04-16T23:25:25.528Z,11.38
2023-04-16T23:27:51.823Z,10.80
2023-04-16T23:30:18.264Z,13.23
2023-04-16T23:32:44.574Z,12.48
2023-04-16T23:35:11.042Z,14.32
2023-04-16T23:37:37.546Z,14.18
2023-04-16T23:40:04.794Z,11.90
2023-04-16T23:42:31.117Z,16.95
2023-04-16T23:44:57.455Z,18.67
2023-04-16T23:47:23.811Z,13.30
2023-04-16T23:49:50.195Z,12.65
2023-04-16T23:52:16.520Z,12.15
2023-04-16T23:54:42.823Z,11.38
2023-04-16T23:57:09.181Z,11.32
2023-04-16T23:59:35.524Z,12.10
